Time;durP1;ratioP1;P1;durP2;ratioP2;P2;SDS_P1;SDS_P2;PMS_P1;PMS_P2;Temp;Humidity;BMP_temperature;BMP_pressure;BME280_temperature;BME280_humidity;BME280_pressure;Samples;Min_cycle;Max_cycle;Signal;HPM_P1;HPM_P2
2022/03/15 00:00:46;;;;;;;11.63;5.40;;;14.90;74.00;;;;;;5032805;28;20032;-66
2022/03/15 00:03:12;;;;;;;10.82;5.30;;;14.90;74.20;;;;;;5032833;28;20025;-66
2022/03/15 00:05:37;;;;;;;13.75;6.05;;;14.80;74.50;;;;;;5032950;28;20078;-66
2022/03/15 00:08:04;;;;;;;12.57;6.22;;;14.90;74.50;;;;;;5032893;28;20021;-65
2022/03/15 00:10:29;;;;;;;10.88;5.80;;;14.80;73.80;;;;;;5034724;28;20088;-65
2022/03/15 00:12:56;;;;;;;12.07;5.75;;;14.80;74.20;;;;;;5036797;28;20355;-66
2022/03/15 00:15:23;;;;;;;8.80;5.28;;;14.80;74.40;;;;;;5036669;28;20025;-65
2022/03/15 00:17:48;;;;;;;12.93;5.32;;;14.80;74.20;;;;;;5036378;28;20010;-66
2022/03/15 00:20:17;;;;;;;10.30;5.35;;;14.80;74.30;;;;;;5036520;28;20088;-65
2022/03/15 00:22:43;;;;;;;11.13;5.78;;;14.80;74.30;;;;;;5036495;28;20533;-65
2022/03/15 00:25:11;;;;;;;9.35;4.78;;;14.80;74.60;;;;;;5036525;28;20049;-65
2022/03/15 00:27:37;;;;;;;9.68;5.05;;;14.80;74.80;;;;;;5035961;28;20026;-58
2022/03/15 00:30:05;;;;;;;7.28;5.18;;;14.80;74.70;;;;;;5036258;28;20623;-60
2022/03/15 00:32:31;;;;;;;10.57;5.65;;;14.70;74.60;;;;;;5036283;28;20022;-65
2022/03/15 00:34:57;;;;;;;12.10;4.90;;;14.70;75.20;;;;;;5036409;28;20052;-62
2022/03/15 00:37:22;;;;;;;10.82;5.90;;;14.70;75.30;;;;;;5036182;28;20025;-64
2022/03/15 00:39:49;;;;;;;14.82;6.22;;;14.70;74.10;;;;;;5036009;28;20502;-63
2022/03/15 00:42:15;;;;;;;10.25;4.90;;;14.70;73.60;;;;;;5036014;28;20474;-57
2022/03/15 00:44:41;;;;;;;14.07;6.32;;;14.70;73.80;;;;;;5036016;28;20067;-59
2022/03/15 00:47:06;;;;;;;13.43;5.35;;;14.70;73.80;;;;;;5036007;28;20030;-64
2022/03/15 00:49:32;;;;;;;7.88;4.75;;;14.70;73.40;;;;;;5036110;28;20115;-64
2022/03/15 00:51:58;;;;;;;12.32;5.50;;;14.70;73.40;;;;;;5035770;28;20025;-63
2022/03/15 00:54:23;;;;;;;11.15;6.00;;;14.70;73.80;;;;;;5036025;28;20021;-55
2022/03/15 00:56:50;;;;;;;9.77;5.30;;;14.70;74.00;;;;;;5035778;28;20048;-60
2022/03/15 00:59:16;;;;;;;11.68;5.63;;;14.70;73.50;;;;;;5035889;28;20520;-65
2022/03/15 01:01:42;;;;;;;13.30;6.15;;;14.70;73.90;;;;;;5035610;28;20502;-60
2022/03/15 01:04:08;;;;;;;10.40;5.70;;;14.70;73.70;;;;;;5035930;28;20022;-58
2022/03/15 01:06:35;;;;;;;12.63;5.82;;;14.70;73.60;;;;;;5035723;28;20024;-60
2022/03/15 01:09:01;;;;;;;11.32;6.45;;;14.60;73.70;;;;;;5035842;28;20021;-64
2022/03/15 01:11:27;;;;;;;10.93;6.47;;;14.60;73.70;;;;;;5017930;28;20014;-65
2022/03/15 01:13:52;;;;;;;13.77;6.43;;;14.60;73.50;;;;;;5035583;28;20041;-65
2022/03/15 01:16:18;;;;;;;14.82;7.25;;;14.60;73.40;;;;;;5035557;28;20525;-64
2022/03/15 01:18:44;;;;;;;10.95;6.50;;;14.60;73.70;;;;;;5035227;28;20033;-63
2022/03/15 01:21:13;;;;;;;13.68;6.88;;;14.60;73.70;;;;;;5034967;28;20025;-60
2022/03/15 01:23:39;;;;;;;13.75;6.85;;;14.60;73.70;;;;;;5035426;28;20548;-63
2022/03/15 01:26:05;;;;;;;11.05;6.45;;;14.50;74.00;;;;;;5035179;28;20025;-65
2022/03/15 01:28:30;;;;;;;13.60;6.63;;;14.60;74.00;;;;;;5034754;28;20079;-64
2022/03/15 01:30:56;;;;;;;13.68;6.72;;;14.50;74.30;;;;;;5035558;28;20534;-60
2022/03/15 01:33:23;;;;;;;14.70;6.63;;;14.50;74.10;;;;;;5035244;28;20026;-65
2022/03/15 01:35:48;;;;;;;12.40;7.03;;;14.50;73.60;;;;;;5035277;28;20025;-65
2022/03/15 01:38:14;;;;;;;11.50;6.85;;;14.50;73.80;;;;;;5034938;28;20429;-65
2022/03/15 01:40:39;;;;;;;15.52;7.30;;;14.50;73.50;;;;;;5035137;28;20041;-66
2022/03/15 01:43:05;;;;;;;12.18;6.95;;;14.50;73.70;;;;;;5034961;28;20018;-64
2022/03/15 01:45:35;;;;;;;16.40;6.97;;;14.50;73.70;;;;;;5034913;28;20581;-56
2022/03/15 01:48:02;;;;;;;10.02;6.68;;;14.50;74.00;;;;;;5034962;28;20048;-56
2022/03/15 01:50:27;;;;;;;16.77;6.93;;;14.50;74.30;;;;;;5034978;28;20073;-56
2022/03/15 01:52:53;;;;;;;13.55;6.97;;;14.50;74.40;;;;;;5034778;28;20538;-56
2022/03/15 01:55:19;;;;;;;13.18;7.13;;;14.40;74.80;;;;;;5034631;28;20068;-58
2022/03/15 01:57:45;;;;;;;15.73;7.20;;;14.50;73.90;;;;;;5034687;28;20032;-54
2022/03/15 02:00:11;;;;;;;12.35;7.07;;;14.40;74.00;;;;;;5034644;28;20120;-58
2022/03/15 02:02:38;;;;;;;12.10;6.25;;;14.40;73.60;;;;;;5034631;28;20044;-57
2022/03/15 02:05:05;;;;;;;13.32;6.75;;;14.50;74.10;;;;;;5034620;28;20063;-55
2022/03/15 02:07:30;;;;;;;13.02;6.47;;;14.40;74.30;;;;;;5034360;28;20021;-56
2022/03/15 02:09:56;;;;;;;12.35;6.88;;;14.40;73.80;;;;;;5034277;28;20084;-57
2022/03/15 02:12:22;;;;;;;16.63;7.32;;;14.40;74.20;;;;;;5034660;28;20056;-55
2022/03/15 02:14:48;;;;;;;12.88;7.13;;;14.40;74.10;;;;;;5034580;28;20413;-63
2022/03/15 02:17:13;;;;;;;14.73;7.70;;;14.40;73.90;;;;;;5034458;28;20025;-63
2022/03/15 02:19:39;;;;;;;11.45;6.53;;;14.40;73.60;;;;;;5034034;28;20034;-63
2022/03/15 02:22:05;;;;;;;13.98;7.47;;;14.40;73.20;;;;;;5034401;28;20025;-62
2022/03/15 02:24:30;;;;;;;12.05;6.45;;;14.40;72.80;;;;;;5033887;28;20025;-59
2022/03/15 02:26:56;;;;;;;12.20;6.75;;;14.40;73.10;;;;;;5034280;28;20378;-57
2022/03/15 02:29:22;;;;;;;11.32;6.80;;;14.40;73.20;;;;;;5033957;28;20405;-57
2022/03/15 02:31:48;;;;;;;9.52;6.07;;;14.30;73.30;;;;;;5027430;28;20034;-58
2022/03/15 02:34:16;;;;;;;13.88;6.38;;;14.30;73.70;;;;;;5013794;28;20026;-60
2022/03/15 02:36:43;;;;;;;12.55;6.78;;;14.30;73.80;;;;;;5011867;28;20053;-57
2022/03/15 02:39:09;;;;;;;10.30;5.95;;;14.30;74.30;;;;;;5013810;28;20037;-56
2022/03/15 02:41:34;;;;;;;12.25;5.93;;;14.30;74.30;;;;;;4996271;28;20030;-56
2022/03/15 02:44:00;;;;;;;12.60;5.80;;;14.30;74.00;;;;;;5014171;28;20036;-57
2022/03/15 02:46:29;;;;;;;9.68;5.63;;;14.30;73.80;;;;;;5014101;28;20029;-59
2022/03/15 02:48:56;;;;;;;10.63;5.78;;;14.30;73.70;;;;;;5014197;28;20124;-56
2022/03/15 02:51:22;;;;;;;9.82;5.53;;;14.30;73.80;;;;;;5014097;28;20497;-56
2022/03/15 02:53:49;;;;;;;9.35;5.40;;;14.30;73.80;;;;;;5013887;28;20030;-56
2022/03/15 02:56:15;;;;;;;11.70;5.35;;;14.20;73.60;;;;;;5014416;28;20033;-64
2022/03/15 02:58:41;;;;;;;12.98;5.05;;;14.20;73.70;;;;;;5013896;28;20534;-62
2022/03/15 03:01:07;;;;;;;11.55;5.03;;;14.20;73.70;;;;;;5013808;28;20032;-64
2022/03/15 03:03:34;;;;;;;14.68;5.80;;;14.20;73.50;;;;;;5013801;28;20022;-65
2022/03/15 03:06:00;;;;;;;8.43;5.00;;;14.20;73.70;;;;;;5013691;28;20040;-65
2022/03/15 03:08:27;;;;;;;13.40;5.10;;;14.20;73.40;;;;;;5013504;28;20026;-64
2022/03/15 03:10:52;;;;;;;10.60;5.32;;;14.20;73.40;;;;;;5013777;28;20045;-65
2022/03/15 03:13:26;;;;;;;10.98;5.53;;;14.30;72.40;;;;;;5013813;28;20069;-66
2022/03/15 03:15:54;;;;;;;11.18;5.72;;;14.40;71.90;;;;;;5013639;28;20022;-65
2022/03/15 03:18:20;;;;;;;10.80;6.28;;;14.30;72.00;;;;;;5013324;28;20052;-64
2022/03/15 03:20:46;;;;;;;10.98;5.95;;;14.30;72.20;;;;;;5013620;28;20513;-64
2022/03/15 03:23:12;;;;;;;14.00;5.97;;;14.20;72.10;;;;;;5013339;28;20109;-64
2022/03/15 03:25:37;;;;;;;12.18;6.22;;;14.30;72.00;;;;;;5013504;28;20061;-64
2022/03/15 03:28:05;;;;;;;12.27;6.28;;;14.30;71.90;;;;;;5013303;28;20040;-66
2022/03/15 03:30:31;;;;;;;10.60;5.95;;;14.30;72.00;;;;;;5013203;28;20034;-64
2022/03/15 03:32:56;;;;;;;13.23;6.40;;;14.20;72.20;;;;;;5013478;28;20435;-65
2022/03/15 03:35:22;;;;;;;14.40;6.43;;;14.20;72.30;;;;;;5013236;28;20048;-64
2022/03/15 03:37:48;;;;;;;14.95;6.45;;;14.20;72.20;;;;;;5013196;28;20053;-66
2022/03/15 03:40:13;;;;;;;11.52;6.30;;;14.20;72.50;;;;;;5013549;28;20033;-66
2022/03/15 03:42:39;;;;;;;10.57;6.60;;;14.20;72.60;;;;;;5013571;28;20025;-67
2022/03/15 03:45:06;;;;;;;12.88;7.53;;;14.10;72.60;;;;;;5016307;28;20382;-65
2022/03/15 03:47:32;;;;;;;14.05;6.68;;;14.20;72.30;;;;;;5019733;28;20022;-65
2022/03/15 03:49:57;;;;;;;11.13;6.15;;;14.20;71.90;;;;;;5019918;28;20037;-63
2022/03/15 03:52:23;;;;;;;15.75;6.53;;;14.20;72.20;;;;;;5019563;28;20026;-65
2022/03/15 03:54:49;;;;;;;14.52;6.55;;;14.20;72.40;;;;;;5019785;28;20471;-65
2022/03/15 03:57:14;;;;;;;14.13;6.65;;;14.20;72.30;;;;;;5019587;28;20022;-64
2022/03/15 03:59:40;;;;;;;9.88;6.15;;;14.20;72.40;;;;;;5019582;28;20128;-65
2022/03/15 04:02:06;;;;;;;12.52;6.35;;;14.20;72.40;;;;;;5019544;28;20069;-64
2022/03/15 04:04:32;;;;;;;10.85;5.70;;;14.10;72.50;;;;;;5019687;28;20026;-65
2022/03/15 04:07:00;;;;;;;9.70;5.85;;;14.20;72.20;;;;;;5019382;28;20101;-65
2022/03/15 04:09:26;;;;;;;10.70;5.85;;;14.10;72.20;;;;;;5019692;28;20386;-59
2022/03/15 04:11:52;;;;;;;17.50;6.47;;;14.10;72.60;;;;;;5019524;28;20471;-64
2022/03/15 04:14:17;;;;;;;10.70;6.15;;;14.00;72.50;;;;;;5019652;28;20100;-64
2022/03/15 04:16:43;;;;;;;13.77;6.47;;;14.10;72.40;;;;;;5019373;28;20021;-63
2022/03/15 04:19:09;;;;;;;11.48;5.65;;;14.00;72.50;;;;;;5019547;28;20074;-64
2022/03/15 04:21:35;;;;;;;12.10;6.00;;;14.00;72.40;;;;;;5019162;28;20029;-65
2022/03/15 04:24:00;;;;;;;11.52;5.82;;;14.00;72.30;;;;;;5019572;28;20026;-65
2022/03/15 04:26:26;;;;;;;9.63;5.47;;;14.00;72.30;;;;;;5019452;28;20379;-64
2022/03/15 04:28:54;;;;;;;8.98;5.18;;;14.00;72.30;;;;;;5019330;28;20034;-64
2022/03/15 04:31:21;;;;;;;12.60;6.10;;;14.00;72.40;;;;;;5019245;28;20121;-64
2022/03/15 04:33:46;;;;;;;18.15;6.20;;;14.00;72.40;;;;;;5019318;28;20459;-62
2022/03/15 04:36:12;;;;;;;8.73;5.65;;;14.00;72.20;;;;;;5019087;28;20033;-63
2022/03/15 04:38:38;;;;;;;12.15;6.15;;;14.00;73.20;;;;;;5019449;28;20471;-64
2022/03/15 04:41:07;;;;;;;11.73;5.78;;;14.00;73.10;;;;;;5001809;28;20068;-60
2022/03/15 04:43:33;;;;;;;9.32;5.72;;;14.00;73.20;;;;;;5019167;28;20536;-63
2022/03/15 04:46:00;;;;;;;14.02;5.78;;;14.00;73.30;;;;;;5028612;28;20064;-60
2022/03/15 04:48:25;;;;;;;10.07;5.75;;;14.00;72.90;;;;;;5038490;28;20052;-63
2022/03/15 04:50:51;;;;;;;8.98;5.13;;;14.10;73.00;;;;;;5037465;28;20451;-63
2022/03/15 04:53:18;;;;;;;10.68;5.90;;;14.10;73.00;;;;;;5038290;28;20044;-64
2022/03/15 04:55:45;;;;;;;12.07;5.35;;;14.00;72.90;;;;;;5038159;28;20045;-64
2022/03/15 04:58:11;;;;;;;8.65;4.90;;;14.00;72.90;;;;;;5035222;28;20084;-64
2022/03/15 05:00:36;;;;;;;8.75;5.82;;;14.10;72.70;;;;;;5035833;28;20390;-64
2022/03/15 05:03:02;;;;;;;10.55;5.93;;;14.00;72.60;;;;;;5036053;28;20044;-63
2022/03/15 05:05:28;;;;;;;10.57;5.78;;;14.10;72.50;;;;;;5035625;28;20435;-60
2022/03/15 05:07:54;;;;;;;12.02;5.45;;;14.00;72.80;;;;;;5035604;28;20480;-64
2022/03/15 05:13:03;;;;;;;11.63;4.85;;;14.00;73.00;;;;;;5035670;28;20078;-64
2022/03/15 05:15:29;;;;;;;8.95;5.30;;;14.00;72.70;;;;;;5017886;28;20021;-64
2022/03/15 05:17:55;;;;;;;10.05;5.15;;;14.00;72.40;;;;;;5034354;28;20049;-64
2022/03/15 05:20:21;;;;;;;11.43;5.60;;;14.00;72.50;;;;;;5035246;28;20030;-65
2022/03/15 05:22:46;;;;;;;10.93;5.18;;;14.00;72.40;;;;;;5035427;28;20047;-64
2022/03/15 05:25:15;;;;;;;8.52;5.22;;;13.90;72.70;;;;;;5017964;28;20033;-65
2022/03/15 05:27:42;;;;;;;10.27;5.20;;;13.90;72.80;;;;;;5030522;28;20403;-65
2022/03/15 05:30:08;;;;;;;9.07;4.63;;;14.00;72.70;;;;;;5034823;28;20051;-64
2022/03/15 05:32:34;;;;;;;10.85;5.03;;;13.90;72.70;;;;;;5033593;28;20087;-63
2022/03/15 05:35:01;;;;;;;10.65;5.43;;;13.80;73.00;;;;;;5035042;28;20425;-63
2022/03/15 05:37:27;;;;;;;8.77;5.22;;;13.90;73.00;;;;;;5035001;28;20045;-64
2022/03/15 05:39:53;;;;;;;9.15;4.65;;;13.90;72.70;;;;;;5035072;28;20143;-64
2022/03/15 05:42:18;;;;;;;10.20;5.63;;;13.90;72.80;;;;;;5035077;28;20021;-63
2022/03/15 05:44:45;;;;;;;9.05;5.80;;;13.90;72.80;;;;;;5034600;28;20088;-63
2022/03/15 05:47:11;;;;;;;10.75;5.05;;;13.90;72.50;;;;;;5034985;28;20030;-64
2022/03/15 05:49:36;;;;;;;8.88;5.18;;;13.90;72.70;;;;;;5034561;28;20084;-63
2022/03/15 05:52:03;;;;;;;11.18;5.47;;;13.90;72.50;;;;;;5035098;28;20449;-63
2022/03/15 05:54:29;;;;;;;13.10;5.97;;;13.90;72.20;;;;;;5033280;28;20033;-63
2022/03/15 05:56:55;;;;;;;11.73;5.82;;;13.80;72.10;;;;;;5031254;28;20037;-63
2022/03/15 05:59:21;;;;;;;10.07;5.60;;;13.80;72.10;;;;;;5034012;28;20482;-64
2022/03/15 06:01:46;;;;;;;12.95;5.60;;;13.70;72.20;;;;;;5029343;28;20037;-63
2022/03/15 06:04:12;;;;;;;12.82;5.40;;;13.70;72.30;;;;;;5033139;28;20021;-64
2022/03/15 06:06:38;;;;;;;10.15;5.88;;;13.60;72.60;;;;;;5033893;28;20025;-64
2022/03/15 06:09:04;;;;;;;9.52;5.60;;;13.60;72.70;;;;;;5016448;28;20095;-63
2022/03/15 06:11:34;;;;;;;10.82;5.35;;;13.60;72.80;;;;;;5034275;28;20513;-64
2022/03/15 06:14:00;;;;;;;11.40;5.32;;;13.60;72.60;;;;;;5034410;28;20025;-64
2022/03/15 06:16:26;;;;;;;11.95;5.45;;;13.60;72.60;;;;;;5034244;28;20033;-64
2022/03/15 06:18:52;;;;;;;9.93;5.00;;;13.60;72.60;;;;;;5033937;28;20032;-64
2022/03/15 06:21:18;;;;;;;9.57;5.13;;;13.60;72.50;;;;;;5034552;28;20022;-64
2022/03/15 06:23:43;;;;;;;10.90;5.50;;;13.50;72.80;;;;;;5034222;28;20082;-60
2022/03/15 06:26:09;;;;;;;10.18;5.20;;;13.50;72.70;;;;;;5033873;28;20025;-58
2022/03/15 06:28:36;;;;;;;8.60;5.22;;;13.50;73.20;;;;;;5032719;28;20056;-62
2022/03/15 06:31:02;;;;;;;11.23;4.75;;;13.40;73.30;;;;;;5031937;28;20022;-59
2022/03/15 06:33:28;;;;;;;9.18;4.47;;;13.40;73.20;;;;;;5033535;28;20079;-64
2022/03/15 06:35:53;;;;;;;9.35;5.00;;;13.40;73.30;;;;;;5029579;28;20030;-60
2022/03/15 06:38:19;;;;;;;11.55;5.30;;;13.50;73.00;;;;;;5025607;28;20053;-59
2022/03/15 06:40:45;;;;;;;11.60;5.32;;;13.60;72.80;;;;;;5031994;28;20033;-57
2022/03/15 06:43:13;;;;;;;10.35;5.05;;;13.50;72.90;;;;;;5026904;28;20459;-63
2022/03/15 06:45:41;;;;;;;13.23;5.72;;;13.50;72.70;;;;;;5031649;28;20041;-64
2022/03/15 06:48:07;;;;;;;10.18;5.20;;;13.50;72.80;;;;;;5033486;28;20045;-63
2022/03/15 06:50:32;;;;;;;7.22;4.80;;;13.50;72.80;;;;;;5032520;28;20735;-64
2022/03/15 06:52:58;;;;;;;9.68;5.03;;;13.50;72.60;;;;;;5031771;28;20026;-67
2022/03/15 06:55:23;;;;;;;10.43;5.63;;;13.40;73.50;;;;;;5029264;28;20029;-61
2022/03/15 06:57:49;;;;;;;14.77;6.65;;;13.40;73.40;;;;;;5031202;28;20108;-62
2022/03/15 07:00:15;;;;;;;11.05;5.20;;;13.40;73.30;;;;;;5026349;28;20486;-62
2022/03/15 07:02:41;;;;;;;14.20;6.97;;;13.40;72.60;;;;;;5027326;28;20539;-63
2022/03/15 07:05:08;;;;;;;14.23;5.63;;;13.40;72.80;;;;;;5029346;28;20386;-62
2022/03/15 07:07:34;;;;;;;14.23;5.65;;;13.40;73.30;;;;;;5004048;28;20382;-63
2022/03/15 07:10:01;;;;;;;14.85;6.25;;;13.40;73.10;;;;;;5031977;28;20036;-63
2022/03/15 07:12:27;;;;;;;15.05;6.05;;;13.40;73.10;;;;;;5031715;28;20049;-59
2022/03/15 07:14:53;;;;;;;13.10;5.70;;;13.40;73.60;;;;;;5023647;28;20065;-63
2022/03/15 07:17:19;;;;;;;10.10;5.60;;;13.30;73.60;;;;;;5023110;28;20013;-63
2022/03/15 07:19:45;;;;;;;13.48;5.85;;;13.40;73.50;;;;;;5013592;28;20507;-62
2022/03/15 07:22:10;;;;;;;13.20;6.00;;;13.40;73.50;;;;;;5013433;28;20033;-62
2022/03/15 07:24:36;;;;;;;13.95;6.03;;;13.40;73.20;;;;;;5027570;28;20057;-62
2022/03/15 07:27:03;;;;;;;14.93;6.20;;;13.40;73.70;;;;;;5021605;28;20367;-63
2022/03/15 07:29:28;;;;;;;10.27;5.63;;;13.40;73.70;;;;;;5032490;28;20038;-62
2022/03/15 07:31:55;;;;;;;12.50;5.95;;;13.40;74.00;;;;;;5031616;28;20026;-63
2022/03/15 07:34:21;;;;;;;12.18;5.88;;;13.50;73.70;;;;;;5019910;28;20038;-62
2022/03/15 07:36:46;;;;;;;11.63;6.32;;;13.50;73.70;;;;;;5028685;28;20030;-62
2022/03/15 07:39:12;;;;;;;15.23;5.78;;;13.40;73.60;;;;;;5026448;28;20029;-58
2022/03/15 07:41:39;;;;;;;13.05;5.80;;;13.40;74.40;;;;;;5017130;28;20490;-56
2022/03/15 07:44:06;;;;;;;13.32;5.78;;;13.50;73.90;;;;;;5018174;28;20033;-57
2022/03/15 07:46:32;;;;;;;13.20;6.10;;;13.50;73.90;;;;;;5018857;28;20028;-58
2022/03/15 07:48:58;;;;;;;14.65;6.18;;;13.50;74.00;;;;;;5023922;28;20494;-56
2022/03/15 07:51:23;;;;;;;12.57;6.32;;;13.50;74.30;;;;;;5025543;28;20025;-61
2022/03/15 07:53:49;;;;;;;11.05;5.85;;;13.50;74.10;;;;;;5020777;28;20037;-55
2022/03/15 07:56:15;;;;;;;12.02;5.82;;;13.50;74.20;;;;;;5028907;28;20466;-51
2022/03/15 07:58:40;;;;;;;13.68;6.43;;;13.50;74.40;;;;;;5029375;28;20029;-52
2022/03/15 08:01:06;;;;;;;12.68;5.38;;;13.50;74.80;;;;;;5018339;28;20030;-49
2022/03/15 08:03:31;;;;;;;14.55;6.00;;;13.50;75.20;;;;;;5028285;28;20030;-52
2022/03/15 08:05:57;;;;;;;10.18;5.20;;;13.50;75.00;;;;;;5030892;28;20082;-52
2022/03/15 08:08:22;;;;;;;13.73;7.28;;;13.50;75.80;;;;;;5031818;28;20156;-59
2022/03/15 08:10:48;;;;;;;13.18;6.45;;;13.60;75.50;;;;;;5030803;28;20025;-54
2022/03/15 08:13:14;;;;;;;15.55;6.80;;;13.50;75.70;;;;;;5031256;28;20067;-53
2022/03/15 08:15:40;;;;;;;12.15;5.95;;;13.60;75.40;;;;;;5031562;28;20482;-55
2022/03/15 08:18:06;;;;;;;14.52;6.82;;;13.60;75.40;;;;;;5031373;28;20018;-51
2022/03/15 08:20:32;;;;;;;12.43;6.20;;;13.60;75.30;;;;;;5031031;28;20114;-52
2022/03/15 08:22:59;;;;;;;12.32;6.15;;;13.60;75.30;;;;;;5031096;28;20033;-52
2022/03/15 08:25:25;;;;;;;12.82;6.60;;;13.70;74.90;;;;;;5031118;28;20075;-49
2022/03/15 08:27:51;;;;;;;8.85;5.40;;;13.70;74.70;;;;;;5030454;28;20026;-51
2022/03/15 08:30:17;;;;;;;17.70;6.68;;;13.70;74.70;;;;;;5031109;28;20021;-57
2022/03/15 08:32:42;;;;;;;13.63;6.93;;;13.70;74.70;;;;;;5034497;28;20060;-55
2022/03/15 08:35:09;;;;;;;10.13;6.15;;;13.60;75.00;;;;;;5035482;28;20381;-51
2022/03/15 08:37:35;;;;;;;11.10;6.07;;;13.60;75.20;;;;;;5027358;28;20044;-55
2022/03/15 08:40:01;;;;;;;15.50;6.18;;;13.60;75.40;;;;;;5034525;28;20116;-51
2022/03/15 08:42:27;;;;;;;9.05;5.35;;;13.70;74.70;;;;;;5033895;28;20097;-54
2022/03/15 08:44:52;;;;;;;11.88;5.60;;;13.60;74.50;;;;;;5034571;28;20025;-57
2022/03/15 08:47:18;;;;;;;12.77;5.60;;;13.60;73.90;;;;;;5035064;28;20028;-54
2022/03/15 08:49:44;;;;;;;14.20;5.80;;;13.60;75.00;;;;;;5034869;28;20029;-53
2022/03/15 08:52:11;;;;;;;9.90;5.07;;;13.60;74.60;;;;;;5034517;28;20105;-55
2022/03/15 08:54:37;;;;;;;10.35;5.38;;;13.60;74.30;;;;;;5034791;28;20417;-53
2022/03/15 08:57:04;;;;;;;19.55;6.97;;;13.60;75.10;;;;;;5034248;28;20033;-53
2022/03/15 08:59:30;;;;;;;10.07;6.13;;;13.60;74.50;;;;;;5034656;28;20404;-54
2022/03/15 09:01:56;;;;;;;13.07;6.50;;;13.60;75.10;;;;;;5034468;28;20040;-56
2022/03/15 09:04:23;;;;;;;11.32;5.93;;;13.70;74.70;;;;;;5034257;28;20025;-58
2022/03/15 09:06:48;;;;;;;14.10;6.22;;;13.60;74.90;;;;;;5016074;28;20088;-56
2022/03/15 09:09:18;;;;;;;13.60;6.03;;;13.70;75.00;;;;;;5034640;28;20026;-58
2022/03/15 09:11:44;;;;;;;11.57;6.15;;;13.60;75.30;;;;;;5033653;28;20112;-56
2022/03/15 09:14:10;;;;;;;16.08;6.90;;;13.60;75.20;;;;;;5034600;28;20116;-58
2022/03/15 09:16:36;;;;;;;13.23;7.00;;;13.60;75.20;;;;;;5033870;28;20026;-64
2022/03/15 09:19:01;;;;;;;17.50;6.82;;;13.70;75.00;;;;;;5023255;28;20048;-62
2022/03/15 09:21:27;;;;;;;16.42;5.90;;;13.70;75.80;;;;;;5033735;28;20021;-53
2022/03/15 09:23:55;;;;;;;13.65;5.50;;;13.70;75.90;;;;;;5034104;28;20112;-63
2022/03/15 09:26:21;;;;;;;10.98;4.88;;;13.70;75.30;;;;;;5033823;28;20033;-58
2022/03/15 09:28:47;;;;;;;14.95;5.90;;;13.70;75.40;;;;;;5033878;28;20036;-59
2022/03/15 09:31:13;;;;;;;15.63;5.97;;;13.70;75.90;;;;;;5024836;28;20037;-60
2022/03/15 09:33:38;;;;;;;10.50;5.40;;;13.80;75.70;;;;;;5020872;28;20029;-61
2022/03/15 09:36:05;;;;;;;11.38;5.55;;;13.70;75.50;;;;;;5033858;28;20363;-58
2022/03/15 09:38:31;;;;;;;14.50;6.18;;;13.70;75.30;;;;;;5033208;28;20057;-60
2022/03/15 09:41:02;;;;;;;16.23;5.47;;;13.80;75.60;;;;;;5032872;28;20083;-63
2022/03/15 09:43:34;;;;;;;10.90;5.00;;;13.80;75.80;;;;;;5032343;28;20060;-62
2022/03/15 09:46:01;;;;;;;10.05;5.50;;;13.90;75.50;;;;;;5033840;28;20017;-57
2022/03/15 09:48:27;;;;;;;18.35;6.25;;;13.90;76.00;;;;;;5034230;28;20025;-63
2022/03/15 09:50:53;;;;;;;11.05;5.00;;;13.90;75.80;;;;;;5032919;28;20025;-54
2022/03/15 09:53:20;;;;;;;10.07;5.25;;;13.90;76.00;;;;;;5032983;28;20025;-60
2022/03/15 09:55:46;;;;;;;16.38;5.43;;;13.90;76.20;;;;;;5032579;28;20033;-52
2022/03/15 09:58:13;;;;;;;16.55;6.05;;;13.90;76.00;;;;;;5033677;28;20036;-55
2022/03/15 10:00:41;;;;;;;7.85;5.60;;;13.90;76.50;;;;;;5033616;28;20379;-53
2022/03/15 10:03:07;;;;;;;12.60;5.47;;;13.90;76.10;;;;;;5033449;28;20060;-53
2022/03/15 10:05:33;;;;;;;9.20;5.70;;;13.90;75.60;;;;;;5033420;28;20057;-53
2022/03/15 10:07:59;;;;;;;11.85;5.55;;;13.90;75.60;;;;;;5014960;28;20068;-51
2022/03/15 10:10:24;;;;;;;12.65;5.32;;;14.00;75.20;;;;;;5032944;28;20026;-54
2022/03/15 10:12:50;;;;;;;15.48;6.30;;;13.90;75.80;;;;;;5033464;28;20497;-53
2022/03/15 10:15:22;;;;;;;15.43;5.68;;;13.90;75.20;;;;;;5032475;28;20470;-53
2022/03/15 10:17:53;;;;;;;14.57;5.25;;;13.90;75.60;;;;;;5033296;28;20028;-54
2022/03/15 10:20:21;;;;;;;9.93;5.32;;;13.90;75.70;;;;;;5031395;28;20029;-54
2022/03/15 10:23:16;;;;;;;10.32;5.38;;;13.90;75.90;;;;;;5032595;28;20021;-54
2022/03/15 10:25:47;;;;;;;11.45;5.00;;;14.00;75.20;;;;;;5030205;28;20413;-54
2022/03/15 10:28:13;;;;;;;13.57;5.07;;;14.00;75.50;;;;;;5020014;28;20022;-59
2022/03/15 10:30:40;;;;;;;10.95;5.25;;;14.00;75.80;;;;;;5032002;28;20072;-59
2022/03/15 10:33:06;;;;;;;18.52;6.07;;;14.00;75.70;;;;;;5032191;28;20043;-58
2022/03/15 10:35:40;;;;;;;13.23;6.65;;;14.00;76.00;;;;;;5031265;28;20013;-58
2022/03/15 10:38:07;;;;;;;13.13;6.32;;;14.10;74.40;;;;;;5032347;28;20029;-56
2022/03/15 10:40:37;;;;;;;15.00;5.28;;;14.00;73.90;;;;;;5031338;28;20033;-60
2022/03/15 10:43:12;;;;;;;10.43;5.65;;;14.10;74.00;;;;;;5032188;28;20548;-64
2022/03/15 10:45:46;;;;;;;10.35;5.50;;;14.00;74.00;;;;;;5032728;28;20075;-61
2022/03/15 10:48:21;;;;;;;13.70;5.53;;;14.00;74.50;;;;;;5033070;28;20027;-62
2022/03/15 10:50:59;;;;;;;9.65;5.55;;;14.10;74.30;;;;;;5032081;28;20846;-63
2022/03/15 10:53:36;;;;;;;10.55;5.50;;;14.10;74.80;;;;;;5031670;28;20029;-61
2022/03/15 10:56:23;;;;;;;12.95;5.88;;;14.10;74.70;;;;;;5029653;28;20032;-58
2022/03/15 10:58:59;;;;;;;15.02;6.32;;;14.10;74.60;;;;;;5030302;28;20029;-60
2022/03/15 11:01:26;;;;;;;17.35;6.63;;;14.10;74.60;;;;;;5025036;28;20073;-64
2022/03/15 11:03:53;;;;;;;9.38;5.60;;;14.10;75.00;;;;;;5012502;28;20113;-62
2022/03/15 11:06:38;;;;;;;10.48;5.25;;;14.10;75.00;;;;;;5029755;28;20026;-64
2022/03/15 11:09:16;;;;;;;11.30;4.90;;;14.20;74.70;;;;;;5032338;28;20044;-64
2022/03/15 11:11:42;;;;;;;10.10;4.45;;;14.20;75.10;;;;;;5031956;28;20474;-64
2022/03/15 11:14:09;;;;;;;11.15;5.15;;;14.20;75.60;;;;;;5032487;28;20025;-64
2022/03/15 11:16:37;;;;;;;8.77;4.82;;;14.20;75.40;;;;;;5031978;28;20030;-64
2022/03/15 11:19:04;;;;;;;10.90;4.30;;;14.30;75.00;;;;;;5031907;28;20132;-62
2022/03/15 11:21:33;;;;;;;9.13;5.10;;;14.30;75.60;;;;;;5032518;28;20053;-67
2022/03/15 11:24:00;;;;;;;9.13;5.40;;;14.30;75.40;;;;;;5033319;28;20025;-63
2022/03/15 11:26:31;;;;;;;9.02;4.28;;;14.30;75.40;;;;;;5033073;28;20021;-62
2022/03/15 11:28:57;;;;;;;8.07;4.63;;;14.40;75.30;;;;;;5033135;28;20437;-63
2022/03/15 11:31:23;;;;;;;12.77;4.78;;;14.40;75.50;;;;;;5032912;28;20482;-64
2022/03/15 11:33:50;;;;;;;9.02;5.05;;;14.40;76.00;;;;;;5032671;28;20051;-65
2022/03/15 11:36:17;;;;;;;11.27;5.15;;;14.40;75.30;;;;;;5032743;28;20024;-64
2022/03/15 11:38:42;;;;;;;12.65;5.80;;;14.50;75.50;;;;;;5033095;28;20079;-61
2022/03/15 11:41:10;;;;;;;11.57;5.00;;;14.50;75.10;;;;;;5033119;28;20025;-63
2022/03/15 11:43:50;;;;;;;11.73;5.13;;;14.50;75.50;;;;;;5033033;28;20026;-62
2022/03/15 11:46:28;;;;;;;9.77;5.22;;;14.50;75.30;;;;;;5026661;28;20498;-61
2022/03/15 11:49:17;;;;;;;9.82;5.30;;;14.50;75.30;;;;;;5024263;28;20106;-64
2022/03/15 11:52:12;;;;;;;7.82;4.55;;;14.60;75.60;;;;;;5019178;28;20209;-63
2022/03/15 11:54:59;;;;;;;8.93;4.72;;;14.50;75.60;;;;;;5031867;28;20021;-62
2022/03/15 11:57:32;;;;;;;8.68;4.85;;;14.50;76.30;;;;;;5030952;28;20043;-65
2022/03/15 11:59:58;;;;;;;8.15;4.38;;;14.50;75.50;;;;;;5031599;28;20046;-65
2022/03/15 12:02:36;;;;;;;8.55;3.95;;;14.60;76.20;;;;;;5031114;28;20095;-64
2022/03/15 12:05:17;;;;;;;6.25;4.00;;;14.60;75.80;;;;;;5031139;28;20064;-57
2022/03/15 12:08:04;;;;;;;7.82;4.40;;;14.60;76.20;;;;;;5035248;28;20013;-57
2022/03/15 12:10:36;;;;;;;7.47;3.28;;;14.60;76.60;;;;;;5035606;28;20025;-58
2022/03/15 12:13:04;;;;;;;9.37;3.47;;;14.70;76.40;;;;;;5036563;28;20029;-63
2022/03/15 12:15:38;;;;;;;6.80;3.50;;;14.70;76.10;;;;;;5036720;28;20024;-56
2022/03/15 12:18:33;;;;;;;9.45;3.92;;;14.70;76.10;;;;;;5036220;28;20052;-60
2022/03/15 12:21:02;;;;;;;7.45;3.63;;;14.70;76.10;;;;;;5035851;28;20045;-53
2022/03/15 12:23:38;;;;;;;7.93;3.78;;;14.80;76.50;;;;;;5036720;28;20025;-64
2022/03/15 12:26:04;;;;;;;9.13;3.63;;;14.70;77.10;;;;;;5036593;28;20017;-64
2022/03/15 12:28:31;;;;;;;9.35;3.15;;;14.70;77.10;;;;;;5036112;28;20447;-64
2022/03/15 12:31:08;;;;;;;6.45;2.30;;;14.90;76.80;;;;;;5036537;28;20080;-63
2022/03/15 12:33:35;;;;;;;4.60;2.72;;;15.00;79.10;;;;;;5035600;28;20024;-64
2022/03/15 12:36:07;;;;;;;4.22;2.42;;;15.00;77.90;;;;;;5036554;28;20025;-61
2022/03/15 12:38:41;;;;;;;5.20;2.40;;;15.00;76.70;;;;;;5035900;28;20108;-64
2022/03/15 12:41:08;;;;;;;5.53;2.38;;;15.10;76.70;;;;;;5031819;28;20053;-64